This is the latest recevied weather packets stored in our database for station/object SR5NLK-1. If no packets are shown the sender has not sent any weather packets the latest 10 day(s).
| Time | Temp. | Humidity | Pressure | Rain* | Wind** | Luminosity | Snow |
|---|---|---|---|---|---|---|---|
| 1787742371 | 25.56° C | 43% | 1079.9 hPa | 0 mm | - | - | - |
| 1787742302 | 25.56° C | 43% | 1079.9 hPa | 0 mm | - | - | - |
| 1787742222 | 22.78° C | 49% | 1043.8 hPa | 0 mm | - | - | - |
| 1787742002 | 26.11° C | 44% | 1031.4 hPa | 0 mm | - | - | - |
| 1787741932 | 23.89° C | 47% | 1065.6 hPa | 0 mm | - | - | - |
| 1787741747 | 26.11° C | 44% | 1087.7 hPa | 0 mm | - | - | - |
| 1787741702 | 26.11° C | 44% | 1087.7 hPa | 0 mm | - | - | - |
| 1787741402 | 26.11° C | 44% | 1036.6 hPa | 0 mm | - | - | - |
| 1787741361 | 26.67° C | 44% | 1078.4 hPa | 0 mm | - | - | - |
| 1787741102 | 26.11° C | 44% | 1010.1 hPa | 0 mm | - | - | - |
| 1787740621 | 26.11° C | 44% | 1068.9 hPa | 0 mm | - | - | - |
| 1787740502 | 26.11° C | 44% | 1062.8 hPa | 0 mm | - | - | - |
| 1787740337 | 27.22° C | 45% | 1068.9 hPa | 0 mm | - | - | - |
| 1787740202 | 26.11° C | 44% | 973.3 hPa | 0 mm | - | - | - |
| 1787740026 | 27.22° C | 46% | 1075.2 hPa | 0 mm | - | - | - |
| 1787739902 | 26.11° C | 45% | 1081.1 hPa | 0 mm | - | - | - |
| 1787739701 | 27.22° C | 45% | 1065.8 hPa | 0 mm | - | - | - |
| 1787739602 | 26.67° C | 45% | 1014.2 hPa | 0 mm | - | - | - |
| 1787739449 | 27.78° C | 45% | 1065.8 hPa | 0 mm | - | - | - |
| 1787739302 | 26.67° C | 46% | 1042.9 hPa | 0 mm | - | - | - |
| 1787739040 | 28.33° C | 44% | 1075.2 hPa | 0 mm | - | - | - |
| 1787739002 | 26.11° C | 47% | 1071.1 hPa | 0 mm | - | - | - |
| 1787738712 | 28.33° C | 45% | 1047.7 hPa | 0 mm | - | - | - |
| 1787738702 | 26.11° C | 47% | 1078.4 hPa | 0 mm | - | - | - |
| 1787738641 | 26.11° C | 47% | 1065.8 hPa | 0 mm | - | - | - |
* Rain latest hour (hover to see other rain measurements)
** Current wind speed in m/s (hover to see current wind gust speed)